sensor_id;sensor_type;location;lat;lon;timestamp;P1;durP1;ratioP1;P2;durP2;ratioP2
54452;SDS011;40363;52.270;10.546;2023-04-09T00:01:38;98.00;;;28.40;;
54452;SDS011;40363;52.270;10.546;2023-04-09T00:04:05;99.15;;;27.10;;
54452;SDS011;40363;52.270;10.546;2023-04-09T00:06:32;98.47;;;27.38;;
54452;SDS011;40363;52.270;10.546;2023-04-09T00:08:58;55.70;;;24.33;;
54452;SDS011;40363;52.270;10.546;2023-04-09T00:11:25;90.30;;;27.20;;
54452;SDS011;40363;52.270;10.546;2023-04-09T00:13:51;63.97;;;24.52;;
54452;SDS011;40363;52.270;10.546;2023-04-09T00:16:19;85.53;;;26.83;;
54452;SDS011;40363;52.270;10.546;2023-04-09T00:18:46;75.45;;;28.30;;
54452;SDS011;40363;52.270;10.546;2023-04-09T00:21:12;216.70;;;33.15;;
54452;SDS011;40363;52.270;10.546;2023-04-09T00:23:40;78.05;;;27.27;;
54452;SDS011;40363;52.270;10.546;2023-04-09T00:26:07;84.93;;;26.48;;
54452;SDS011;40363;52.270;10.546;2023-04-09T00:28:33;60.10;;;24.33;;
54452;SDS011;40363;52.270;10.546;2023-04-09T00:31:00;65.40;;;23.52;;
54452;SDS011;40363;52.270;10.546;2023-04-09T00:33:28;69.20;;;23.58;;
54452;SDS011;40363;52.270;10.546;2023-04-09T00:35:54;60.85;;;22.10;;
54452;SDS011;40363;52.270;10.546;2023-04-09T00:38:21;59.30;;;23.27;;
54452;SDS011;40363;52.270;10.546;2023-04-09T00:40:48;86.97;;;27.33;;
54452;SDS011;40363;52.270;10.546;2023-04-09T00:43:14;87.43;;;28.42;;
54452;SDS011;40363;52.270;10.546;2023-04-09T00:45:41;107.72;;;29.13;;
54452;SDS011;40363;52.270;10.546;2023-04-09T00:48:08;88.00;;;24.48;;
54452;SDS011;40363;52.270;10.546;2023-04-09T00:50:37;70.28;;;28.80;;
54452;SDS011;40363;52.270;10.546;2023-04-09T00:53:03;87.10;;;28.45;;
54452;SDS011;40363;52.270;10.546;2023-04-09T00:55:30;78.18;;;26.67;;
54452;SDS011;40363;52.270;10.546;2023-04-09T00:57:57;77.35;;;25.35;;
54452;SDS011;40363;52.270;10.546;2023-04-09T01:00:24;50.08;;;23.52;;
54452;SDS011;40363;52.270;10.546;2023-04-09T01:02:52;54.53;;;23.02;;
54452;SDS011;40363;52.270;10.546;2023-04-09T01:05:21;51.03;;;24.88;;
54452;SDS011;40363;52.270;10.546;2023-04-09T01:07:53;52.95;;;22.40;;
54452;SDS011;40363;52.270;10.546;2023-04-09T01:10:28;48.08;;;23.73;;
54452;SDS011;40363;52.270;10.546;2023-04-09T01:13:07;43.53;;;22.50;;
54452;SDS011;40363;52.270;10.546;2023-04-09T01:15:38;52.10;;;23.27;;
54452;SDS011;40363;52.270;10.546;2023-04-09T01:18:13;55.97;;;23.77;;
54452;SDS011;40363;52.270;10.546;2023-04-09T01:20:46;54.25;;;23.13;;
54452;SDS011;40363;52.270;10.546;2023-04-09T01:23:26;57.30;;;22.42;;
54452;SDS011;40363;52.270;10.546;2023-04-09T01:26:00;50.47;;;21.50;;
54452;SDS011;40363;52.270;10.546;2023-04-09T01:28:32;52.83;;;22.42;;
54452;SDS011;40363;52.270;10.546;2023-04-09T01:31:03;59.97;;;23.75;;
54452;SDS011;40363;52.270;10.546;2023-04-09T01:33:33;59.05;;;24.42;;
54452;SDS011;40363;52.270;10.546;2023-04-09T01:36:02;48.13;;;26.15;;
54452;SDS011;40363;52.270;10.546;2023-04-09T01:38:31;71.38;;;24.55;;
54452;SDS011;40363;52.270;10.546;2023-04-09T01:41:00;69.18;;;23.27;;
54452;SDS011;40363;52.270;10.546;2023-04-09T01:43:29;60.42;;;24.10;;
54452;SDS011;40363;52.270;10.546;2023-04-09T01:45:59;62.63;;;23.52;;
54452;SDS011;40363;52.270;10.546;2023-04-09T01:48:27;60.13;;;23.17;;
54452;SDS011;40363;52.270;10.546;2023-04-09T01:50:54;45.72;;;22.30;;
54452;SDS011;40363;52.270;10.546;2023-04-09T01:53:21;54.13;;;22.33;;
54452;SDS011;40363;52.270;10.546;2023-04-09T01:55:48;52.10;;;21.30;;
54452;SDS011;40363;52.270;10.546;2023-04-09T01:58:15;59.90;;;24.63;;
54452;SDS011;40363;52.270;10.546;2023-04-09T02:00:43;64.65;;;21.83;;
54452;SDS011;40363;52.270;10.546;2023-04-09T02:03:15;70.80;;;23.48;;
54452;SDS011;40363;52.270;10.546;2023-04-09T02:05:44;58.90;;;23.33;;
54452;SDS011;40363;52.270;10.546;2023-04-09T02:08:15;55.80;;;21.98;;
54452;SDS011;40363;52.270;10.546;2023-04-09T02:10:48;45.42;;;21.98;;
54452;SDS011;40363;52.270;10.546;2023-04-09T02:13:17;65.30;;;23.13;;
54452;SDS011;40363;52.270;10.546;2023-04-09T02:15:45;52.28;;;20.38;;
54452;SDS011;40363;52.270;10.546;2023-04-09T02:18:21;69.68;;;22.02;;
54452;SDS011;40363;52.270;10.546;2023-04-09T02:20:49;61.67;;;18.30;;
54452;SDS011;40363;52.270;10.546;2023-04-09T02:23:15;36.95;;;18.70;;
54452;SDS011;40363;52.270;10.546;2023-04-09T02:25:42;43.20;;;18.75;;
54452;SDS011;40363;52.270;10.546;2023-04-09T02:28:09;52.65;;;18.67;;
54452;SDS011;40363;52.270;10.546;2023-04-09T02:30:35;51.40;;;17.27;;
54452;SDS011;40363;52.270;10.546;2023-04-09T02:33:02;42.53;;;16.48;;
54452;SDS011;40363;52.270;10.546;2023-04-09T02:35:30;42.53;;;16.80;;
54452;SDS011;40363;52.270;10.546;2023-04-09T02:37:57;31.35;;;16.75;;
54452;SDS011;40363;52.270;10.546;2023-04-09T02:40:23;50.72;;;17.33;;
54452;SDS011;40363;52.270;10.546;2023-04-09T02:42:50;38.92;;;16.48;;
54452;SDS011;40363;52.270;10.546;2023-04-09T02:45:17;37.60;;;16.38;;
54452;SDS011;40363;52.270;10.546;2023-04-09T02:47:43;46.65;;;18.05;;
54452;SDS011;40363;52.270;10.546;2023-04-09T02:50:10;47.40;;;17.90;;
54452;SDS011;40363;52.270;10.546;2023-04-09T02:52:38;64.35;;;19.88;;
54452;SDS011;40363;52.270;10.546;2023-04-09T02:55:05;38.60;;;16.73;;
54452;SDS011;40363;52.270;10.546;2023-04-09T02:57:32;38.72;;;17.27;;
54452;SDS011;40363;52.270;10.546;2023-04-09T03:00:00;37.78;;;17.90;;
54452;SDS011;40363;52.270;10.546;2023-04-09T03:02:26;47.17;;;18.52;;
54452;SDS011;40363;52.270;10.546;2023-04-09T03:04:53;61.33;;;19.52;;
54452;SDS011;40363;52.270;10.546;2023-04-09T03:07:20;42.45;;;19.55;;
54452;SDS011;40363;52.270;10.546;2023-04-09T03:09:48;36.22;;;20.35;;
54452;SDS011;40363;52.270;10.546;2023-04-09T03:12:15;50.95;;;19.15;;
54452;SDS011;40363;52.270;10.546;2023-04-09T03:14:41;36.80;;;18.42;;
54452;SDS011;40363;52.270;10.546;2023-04-09T03:17:08;39.80;;;20.45;;
54452;SDS011;40363;52.270;10.546;2023-04-09T03:19:34;38.75;;;19.30;;
54452;SDS011;40363;52.270;10.546;2023-04-09T03:22:01;36.58;;;18.35;;
54452;SDS011;40363;52.270;10.546;2023-04-09T03:24:28;35.38;;;17.85;;
54452;SDS011;40363;52.270;10.546;2023-04-09T03:26:56;39.58;;;17.90;;
54452;SDS011;40363;52.270;10.546;2023-04-09T03:29:22;40.20;;;17.77;;
54452;SDS011;40363;52.270;10.546;2023-04-09T03:31:50;34.03;;;17.60;;
54452;SDS011;40363;52.270;10.546;2023-04-09T03:34:16;35.83;;;18.80;;
54452;SDS011;40363;52.270;10.546;2023-04-09T03:36:43;39.67;;;18.55;;
54452;SDS011;40363;52.270;10.546;2023-04-09T03:39:09;34.30;;;17.95;;
54452;SDS011;40363;52.270;10.546;2023-04-09T03:41:36;36.22;;;17.92;;
54452;SDS011;40363;52.270;10.546;2023-04-09T03:44:04;33.17;;;18.00;;
54452;SDS011;40363;52.270;10.546;2023-04-09T03:46:30;42.08;;;17.65;;
54452;SDS011;40363;52.270;10.546;2023-04-09T03:48:57;35.97;;;18.42;;
54452;SDS011;40363;52.270;10.546;2023-04-09T03:51:23;31.70;;;16.30;;
54452;SDS011;40363;52.270;10.546;2023-04-09T03:53:51;28.58;;;15.18;;
54452;SDS011;40363;52.270;10.546;2023-04-09T03:56:17;26.67;;;16.17;;
54452;SDS011;40363;52.270;10.546;2023-04-09T03:58:44;35.15;;;16.65;;
54452;SDS011;40363;52.270;10.546;2023-04-09T04:01:13;25.80;;;15.52;;
54452;SDS011;40363;52.270;10.546;2023-04-09T04:03:40;30.20;;;15.93;;
54452;SDS011;40363;52.270;10.546;2023-04-09T04:06:06;30.55;;;16.63;;
54452;SDS011;40363;52.270;10.546;2023-04-09T04:08:33;27.65;;;15.10;;
54452;SDS011;40363;52.270;10.546;2023-04-09T04:11:02;32.05;;;16.92;;
54452;SDS011;40363;52.270;10.546;2023-04-09T04:13:28;29.77;;;16.35;;
54452;SDS011;40363;52.270;10.546;2023-04-09T04:15:55;29.48;;;15.45;;
54452;SDS011;40363;52.270;10.546;2023-04-09T04:18:23;28.80;;;17.90;;
54452;SDS011;40363;52.270;10.546;2023-04-09T04:20:50;28.83;;;15.80;;
54452;SDS011;40363;52.270;10.546;2023-04-09T04:23:16;27.67;;;14.82;;
54452;SDS011;40363;52.270;10.546;2023-04-09T04:25:43;28.35;;;16.17;;
54452;SDS011;40363;52.270;10.546;2023-04-09T04:28:09;28.08;;;16.52;;
54452;SDS011;40363;52.270;10.546;2023-04-09T04:30:36;32.25;;;17.13;;
54452;SDS011;40363;52.270;10.546;2023-04-09T04:33:02;34.42;;;17.13;;
54452;SDS011;40363;52.270;10.546;2023-04-09T04:35:30;31.38;;;17.50;;
54452;SDS011;40363;52.270;10.546;2023-04-09T04:37:57;35.92;;;17.52;;
54452;SDS011;40363;52.270;10.546;2023-04-09T04:40:23;33.45;;;16.90;;
54452;SDS011;40363;52.270;10.546;2023-04-09T04:42:50;32.65;;;17.50;;
54452;SDS011;40363;52.270;10.546;2023-04-09T04:45:16;32.65;;;17.02;;
54452;SDS011;40363;52.270;10.546;2023-04-09T04:47:43;27.60;;;15.75;;
54452;SDS011;40363;52.270;10.546;2023-04-09T04:50:10;31.13;;;17.73;;
54452;SDS011;40363;52.270;10.546;2023-04-09T04:52:38;28.80;;;15.23;;
54452;SDS011;40363;52.270;10.546;2023-04-09T04:55:05;33.47;;;16.48;;
54452;SDS011;40363;52.270;10.546;2023-04-09T04:57:31;30.20;;;17.13;;
54452;SDS011;40363;52.270;10.546;2023-04-09T04:59:58;40.92;;;18.25;;
54452;SDS011;40363;52.270;10.546;2023-04-09T05:02:25;34.28;;;17.77;;
54452;SDS011;40363;52.270;10.546;2023-04-09T05:04:51;31.17;;;18.48;;
54452;SDS011;40363;52.270;10.546;2023-04-09T05:07:18;30.15;;;16.13;;
54452;SDS011;40363;52.270;10.546;2023-04-09T05:09:47;32.60;;;17.10;;
54452;SDS011;40363;52.270;10.546;2023-04-09T05:12:14;28.88;;;15.70;;
54452;SDS011;40363;52.270;10.546;2023-04-09T05:14:42;33.50;;;18.85;;
54452;SDS011;40363;52.270;10.546;2023-04-09T05:17:08;32.75;;;17.08;;
54452;SDS011;40363;52.270;10.546;2023-04-09T05:19:35;34.22;;;17.25;;
54452;SDS011;40363;52.270;10.546;2023-04-09T05:22:01;33.97;;;17.23;;
54452;SDS011;40363;52.270;10.546;2023-04-09T05:24:28;33.28;;;16.20;;
54452;SDS011;40363;52.270;10.546;2023-04-09T05:26:56;27.42;;;15.85;;
54452;SDS011;40363;52.270;10.546;2023-04-09T05:29:22;28.00;;;14.93;;
54452;SDS011;40363;52.270;10.546;2023-04-09T05:35:03;32.75;;;15.10;;
54452;SDS011;40363;52.270;10.546;2023-04-09T05:37:59;31.02;;;16.77;;
54452;SDS011;40363;52.270;10.546;2023-04-09T05:40:25;26.95;;;15.68;;
54452;SDS011;40363;52.270;10.546;2023-04-09T05:42:53;34.60;;;16.02;;
54452;SDS011;40363;52.270;10.546;2023-04-09T05:45:20;26.83;;;15.75;;
54452;SDS011;40363;52.270;10.546;2023-04-09T05:47:46;26.10;;;15.88;;
54452;SDS011;40363;52.270;10.546;2023-04-09T05:50:13;28.45;;;15.75;;
54452;SDS011;40363;52.270;10.546;2023-04-09T05:52:39;30.50;;;15.93;;
54452;SDS011;40363;52.270;10.546;2023-04-09T05:55:06;29.27;;;15.73;;
54452;SDS011;40363;52.270;10.546;2023-04-09T05:57:36;32.50;;;16.25;;
54452;SDS011;40363;52.270;10.546;2023-04-09T06:00:05;28.02;;;15.15;;
54452;SDS011;40363;52.270;10.546;2023-04-09T06:02:32;24.40;;;14.70;;
54452;SDS011;40363;52.270;10.546;2023-04-09T06:04:59;33.53;;;16.23;;
54452;SDS011;40363;52.270;10.546;2023-04-09T06:07:26;34.33;;;16.80;;
54452;SDS011;40363;52.270;10.546;2023-04-09T06:09:53;27.83;;;15.65;;
54452;SDS011;40363;52.270;10.546;2023-04-09T06:12:20;26.25;;;14.38;;
54452;SDS011;40363;52.270;10.546;2023-04-09T06:14:52;29.23;;;15.85;;
54452;SDS011;40363;52.270;10.546;2023-04-09T06:17:20;28.15;;;13.80;;
54452;SDS011;40363;52.270;10.546;2023-04-09T06:19:47;25.13;;;14.85;;
54452;SDS011;40363;52.270;10.546;2023-04-09T06:22:13;29.67;;;15.05;;
54452;SDS011;40363;52.270;10.546;2023-04-09T06:24:40;32.42;;;16.13;;
54452;SDS011;40363;52.270;10.546;2023-04-09T06:27:07;29.83;;;16.67;;
54452;SDS011;40363;52.270;10.546;2023-04-09T06:29:33;34.20;;;15.82;;
54452;SDS011;40363;52.270;10.546;2023-04-09T06:32:00;25.10;;;15.27;;
54452;SDS011;40363;52.270;10.546;2023-04-09T06:34:30;26.38;;;15.45;;
54452;SDS011;40363;52.270;10.546;2023-04-09T06:37:02;29.67;;;14.95;;
54452;SDS011;40363;52.270;10.546;2023-04-09T06:39:28;26.23;;;14.73;;
54452;SDS011;40363;52.270;10.546;2023-04-09T06:41:55;32.72;;;16.13;;
54452;SDS011;40363;52.270;10.546;2023-04-09T06:44:22;30.75;;;15.80;;
54452;SDS011;40363;52.270;10.546;2023-04-09T06:46:49;31.02;;;16.83;;
54452;SDS011;40363;52.270;10.546;2023-04-09T06:49:15;30.63;;;16.38;;
54452;SDS011;40363;52.270;10.546;2023-04-09T06:51:45;31.65;;;16.50;;
54452;SDS011;40363;52.270;10.546;2023-04-09T06:54:11;34.03;;;17.90;;
54452;SDS011;40363;52.270;10.546;2023-04-09T06:56:38;34.75;;;16.00;;
54452;SDS011;40363;52.270;10.546;2023-04-09T06:59:05;39.60;;;17.45;;
54452;SDS011;40363;52.270;10.546;2023-04-09T07:01:35;32.40;;;16.77;;
54452;SDS011;40363;52.270;10.546;2023-04-09T07:04:02;32.22;;;16.52;;
54452;SDS011;40363;52.270;10.546;2023-04-09T07:06:29;35.95;;;16.30;;
54452;SDS011;40363;52.270;10.546;2023-04-09T07:08:57;30.40;;;15.65;;
54452;SDS011;40363;52.270;10.546;2023-04-09T07:11:24;35.05;;;16.77;;
54452;SDS011;40363;52.270;10.546;2023-04-09T07:13:51;31.65;;;15.48;;
54452;SDS011;40363;52.270;10.546;2023-04-09T07:16:18;33.70;;;16.80;;
54452;SDS011;40363;52.270;10.546;2023-04-09T07:18:45;33.50;;;15.38;;
54452;SDS011;40363;52.270;10.546;2023-04-09T07:21:11;39.80;;;17.90;;
54452;SDS011;40363;52.270;10.546;2023-04-09T07:23:38;35.08;;;16.50;;
54452;SDS011;40363;52.270;10.546;2023-04-09T07:26:09;35.78;;;17.05;;
54452;SDS011;40363;52.270;10.546;2023-04-09T07:28:36;37.33;;;16.73;;
54452;SDS011;40363;52.270;10.546;2023-04-09T07:31:02;38.13;;;16.58;;
54452;SDS011;40363;52.270;10.546;2023-04-09T07:33:29;31.20;;;16.08;;
54452;SDS011;40363;52.270;10.546;2023-04-09T07:35:56;37.20;;;17.58;;
54452;SDS011;40363;52.270;10.546;2023-04-09T07:38:22;35.75;;;15.20;;
54452;SDS011;40363;52.270;10.546;2023-04-09T07:40:49;31.88;;;15.68;;
54452;SDS011;40363;52.270;10.546;2023-04-09T07:43:17;37.78;;;15.10;;
54452;SDS011;40363;52.270;10.546;2023-04-09T07:45:43;34.60;;;16.38;;
54452;SDS011;40363;52.270;10.546;2023-04-09T07:48:10;34.33;;;15.00;;
54452;SDS011;40363;52.270;10.546;2023-04-09T07:50:37;37.10;;;15.75;;
54452;SDS011;40363;52.270;10.546;2023-04-09T07:53:03;32.13;;;15.65;;
54452;SDS011;40363;52.270;10.546;2023-04-09T07:55:30;32.22;;;15.02;;
54452;SDS011;40363;52.270;10.546;2023-04-09T07:57:57;37.33;;;15.60;;
54452;SDS011;40363;52.270;10.546;2023-04-09T08:00:25;38.55;;;15.63;;
54452;SDS011;40363;52.270;10.546;2023-04-09T08:02:51;36.92;;;15.88;;
54452;SDS011;40363;52.270;10.546;2023-04-09T08:05:18;38.33;;;15.88;;
54452;SDS011;40363;52.270;10.546;2023-04-09T08:07:45;32.70;;;15.25;;
54452;SDS011;40363;52.270;10.546;2023-04-09T08:10:11;39.72;;;16.63;;
54452;SDS011;40363;52.270;10.546;2023-04-09T08:12:40;34.90;;;15.52;;
54452;SDS011;40363;52.270;10.546;2023-04-09T08:15:07;34.30;;;15.45;;
54452;SDS011;40363;52.270;10.546;2023-04-09T08:17:35;34.58;;;14.65;;
54452;SDS011;40363;52.270;10.546;2023-04-09T08:20:02;45.05;;;18.90;;
54452;SDS011;40363;52.270;10.546;2023-04-09T08:22:29;40.38;;;17.83;;
54452;SDS011;40363;52.270;10.546;2023-04-09T08:24:56;36.38;;;16.60;;
54452;SDS011;40363;52.270;10.546;2023-04-09T08:27:23;40.55;;;16.88;;
54452;SDS011;40363;52.270;10.546;2023-04-09T08:29:49;39.97;;;16.35;;
54452;SDS011;40363;52.270;10.546;2023-04-09T08:32:16;43.45;;;18.75;;
54452;SDS011;40363;52.270;10.546;2023-04-09T08:34:44;45.13;;;18.50;;
54452;SDS011;40363;52.270;10.546;2023-04-09T08:37:11;45.63;;;18.25;;
54452;SDS011;40363;52.270;10.546;2023-04-09T08:39:37;41.53;;;19.17;;
54452;SDS011;40363;52.270;10.546;2023-04-09T08:42:04;42.88;;;19.30;;
54452;SDS011;40363;52.270;10.546;2023-04-09T08:44:32;46.05;;;18.90;;
54452;SDS011;40363;52.270;10.546;2023-04-09T08:46:59;39.38;;;16.40;;
54452;SDS011;40363;52.270;10.546;2023-04-09T08:49:26;33.97;;;16.02;;
54452;SDS011;40363;52.270;10.546;2023-04-09T08:51:55;39.28;;;17.63;;
54452;SDS011;40363;52.270;10.546;2023-04-09T08:54:21;41.22;;;16.50;;
54452;SDS011;40363;52.270;10.546;2023-04-09T08:56:50;31.85;;;14.70;;
54452;SDS011;40363;52.270;10.546;2023-04-09T08:59:17;41.50;;;16.67;;
54452;SDS011;40363;52.270;10.546;2023-04-09T09:01:43;40.80;;;16.42;;
54452;SDS011;40363;52.270;10.546;2023-04-09T09:04:13;37.30;;;17.30;;
54452;SDS011;40363;52.270;10.546;2023-04-09T09:06:40;42.70;;;17.33;;
54452;SDS011;40363;52.270;10.546;2023-04-09T09:09:09;40.97;;;17.65;;
54452;SDS011;40363;52.270;10.546;2023-04-09T09:11:37;40.28;;;17.05;;
54452;SDS011;40363;52.270;10.546;2023-04-09T09:14:06;36.95;;;15.98;;
54452;SDS011;40363;52.270;10.546;2023-04-09T09:16:34;35.03;;;17.20;;
54452;SDS011;40363;52.270;10.546;2023-04-09T09:19:04;38.05;;;17.17;;
54452;SDS011;40363;52.270;10.546;2023-04-09T09:21:31;36.92;;;16.83;;
54452;SDS011;40363;52.270;10.546;2023-04-09T09:23:58;32.25;;;17.65;;
54452;SDS011;40363;52.270;10.546;2023-04-09T09:26:27;40.28;;;17.50;;
54452;SDS011;40363;52.270;10.546;2023-04-09T09:28:56;38.80;;;16.60;;
54452;SDS011;40363;52.270;10.546;2023-04-09T09:31:23;31.70;;;15.20;;
54452;SDS011;40363;52.270;10.546;2023-04-09T09:33:50;33.58;;;15.30;;
54452;SDS011;40363;52.270;10.546;2023-04-09T09:36:30;34.70;;;16.17;;
54452;SDS011;40363;52.270;10.546;2023-04-09T09:38:58;33.90;;;15.65;;
54452;SDS011;40363;52.270;10.546;2023-04-09T09:41:30;33.08;;;15.20;;
54452;SDS011;40363;52.270;10.546;2023-04-09T09:43:57;31.83;;;17.23;;
54452;SDS011;40363;52.270;10.546;2023-04-09T09:46:24;30.42;;;16.13;;
54452;SDS011;40363;52.270;10.546;2023-04-09T09:48:52;35.90;;;16.33;;
54452;SDS011;40363;52.270;10.546;2023-04-09T09:51:21;31.50;;;16.35;;
54452;SDS011;40363;52.270;10.546;2023-04-09T09:53:53;31.42;;;15.25;;
54452;SDS011;40363;52.270;10.546;2023-04-09T09:56:22;30.55;;;14.18;;
54452;SDS011;40363;52.270;10.546;2023-04-09T09:59:00;29.40;;;15.02;;
54452;SDS011;40363;52.270;10.546;2023-04-09T10:01:31;25.58;;;13.23;;
54452;SDS011;40363;52.270;10.546;2023-04-09T10:03:59;27.65;;;15.02;;
54452;SDS011;40363;52.270;10.546;2023-04-09T10:06:27;27.70;;;13.82;;
54452;SDS011;40363;52.270;10.546;2023-04-09T10:08:56;27.60;;;15.20;;
54452;SDS011;40363;52.270;10.546;2023-04-09T10:11:23;32.70;;;15.52;;
54452;SDS011;40363;52.270;10.546;2023-04-09T10:13:50;28.63;;;14.25;;
54452;SDS011;40363;52.270;10.546;2023-04-09T10:16:23;27.95;;;14.88;;
54452;SDS011;40363;52.270;10.546;2023-04-09T10:18:51;28.92;;;14.70;;
54452;SDS011;40363;52.270;10.546;2023-04-09T10:21:22;30.10;;;16.23;;
54452;SDS011;40363;52.270;10.546;2023-04-09T10:23:53;28.38;;;13.68;;
54452;SDS011;40363;52.270;10.546;2023-04-09T10:26:20;35.03;;;15.90;;
54452;SDS011;40363;52.270;10.546;2023-04-09T10:29:02;29.20;;;13.32;;
54452;SDS011;40363;52.270;10.546;2023-04-09T10:31:45;30.33;;;14.23;;
54452;SDS011;40363;52.270;10.546;2023-04-09T10:34:30;27.38;;;15.05;;
54452;SDS011;40363;52.270;10.546;2023-04-09T10:37:00;26.20;;;14.45;;
54452;SDS011;40363;52.270;10.546;2023-04-09T10:39:29;24.83;;;13.50;;
54452;SDS011;40363;52.270;10.546;2023-04-09T10:41:57;29.17;;;14.52;;
54452;SDS011;40363;52.270;10.546;2023-04-09T10:44:26;27.10;;;15.35;;
54452;SDS011;40363;52.270;10.546;2023-04-09T10:46:57;28.95;;;14.52;;
54452;SDS011;40363;52.270;10.546;2023-04-09T10:49:24;30.15;;;14.57;;
54452;SDS011;40363;52.270;10.546;2023-04-09T10:51:52;27.85;;;14.60;;
54452;SDS011;40363;52.270;10.546;2023-04-09T10:54:35;30.52;;;15.55;;
54452;SDS011;40363;52.270;10.546;2023-04-09T10:57:17;29.83;;;15.38;;
54452;SDS011;40363;52.270;10.546;2023-04-09T10:59:46;30.02;;;14.93;;
54452;SDS011;40363;52.270;10.546;2023-04-09T11:02:34;29.02;;;14.68;;
54452;SDS011;40363;52.270;10.546;2023-04-09T11:05:32;32.83;;;15.60;;
54452;SDS011;40363;52.270;10.546;2023-04-09T11:08:02;27.17;;;14.70;;
54452;SDS011;40363;52.270;10.546;2023-04-09T11:10:30;30.70;;;14.23;;
54452;SDS011;40363;52.270;10.546;2023-04-09T11:12:57;27.52;;;14.80;;
54452;SDS011;40363;52.270;10.546;2023-04-09T11:15:24;28.48;;;15.18;;
54452;SDS011;40363;52.270;10.546;2023-04-09T11:17:52;31.17;;;14.82;;
54452;SDS011;40363;52.270;10.546;2023-04-09T11:20:20;29.20;;;15.90;;
54452;SDS011;40363;52.270;10.546;2023-04-09T11:22:48;33.72;;;16.30;;
54452;SDS011;40363;52.270;10.546;2023-04-09T11:25:18;29.90;;;14.57;;
54452;SDS011;40363;52.270;10.546;2023-04-09T11:27:46;29.55;;;14.68;;
54452;SDS011;40363;52.270;10.546;2023-04-09T11:30:13;28.75;;;14.93;;
54452;SDS011;40363;52.270;10.546;2023-04-09T11:32:40;27.73;;;14.82;;
54452;SDS011;40363;52.270;10.546;2023-04-09T11:35:11;35.35;;;16.83;;
54452;SDS011;40363;52.270;10.546;2023-04-09T11:37:40;28.83;;;15.13;;
54452;SDS011;40363;52.270;10.546;2023-04-09T11:40:12;31.35;;;15.35;;
54452;SDS011;40363;52.270;10.546;2023-04-09T11:42:40;28.25;;;15.43;;
54452;SDS011;40363;52.270;10.546;2023-04-09T11:45:08;32.67;;;16.33;;
54452;SDS011;40363;52.270;10.546;2023-04-09T11:47:35;33.17;;;16.95;;
54452;SDS011;40363;52.270;10.546;2023-04-09T11:50:04;27.73;;;14.88;;
54452;SDS011;40363;52.270;10.546;2023-04-09T11:52:33;29.05;;;14.55;;
54452;SDS011;40363;52.270;10.546;2023-04-09T11:55:00;31.33;;;17.13;;
54452;SDS011;40363;52.270;10.546;2023-04-09T11:57:35;29.45;;;15.07;;
54452;SDS011;40363;52.270;10.546;2023-04-09T12:00:09;28.90;;;16.17;;
54452;SDS011;40363;52.270;10.546;2023-04-09T12:02:38;30.67;;;15.93;;
54452;SDS011;40363;52.270;10.546;2023-04-09T12:05:07;30.30;;;14.57;;
54452;SDS011;40363;52.270;10.546;2023-04-09T12:07:37;28.10;;;15.07;;
54452;SDS011;40363;52.270;10.546;2023-04-09T12:10:04;32.55;;;15.68;;
54452;SDS011;40363;52.270;10.546;2023-04-09T12:12:38;30.20;;;17.23;;
54452;SDS011;40363;52.270;10.546;2023-04-09T12:15:09;31.35;;;15.98;;
54452;SDS011;40363;52.270;10.546;2023-04-09T12:17:37;31.17;;;15.13;;
54452;SDS011;40363;52.270;10.546;2023-04-09T12:20:04;29.08;;;16.85;;
54452;SDS011;40363;52.270;10.546;2023-04-09T12:22:32;28.63;;;16.42;;
54452;SDS011;40363;52.270;10.546;2023-04-09T12:25:01;26.05;;;14.07;;
54452;SDS011;40363;52.270;10.546;2023-04-09T12:27:28;29.35;;;15.88;;
54452;SDS011;40363;52.270;10.546;2023-04-09T12:29:55;33.33;;;15.57;;
54452;SDS011;40363;52.270;10.546;2023-04-09T12:32:22;30.65;;;15.85;;
54452;SDS011;40363;52.270;10.546;2023-04-09T12:34:49;31.88;;;15.40;;
54452;SDS011;40363;52.270;10.546;2023-04-09T12:37:15;31.85;;;15.27;;
54452;SDS011;40363;52.270;10.546;2023-04-09T12:39:42;34.33;;;16.75;;
54452;SDS011;40363;52.270;10.546;2023-04-09T12:42:10;31.45;;;15.15;;
54452;SDS011;40363;52.270;10.546;2023-04-09T12:44:37;27.75;;;13.68;;
54452;SDS011;40363;52.270;10.546;2023-04-09T12:47:03;31.20;;;14.88;;
54452;SDS011;40363;52.270;10.546;2023-04-09T12:49:31;29.83;;;14.73;;
54452;SDS011;40363;52.270;10.546;2023-04-09T12:51:58;27.30;;;13.98;;
54452;SDS011;40363;52.270;10.546;2023-04-09T12:54:25;25.65;;;14.68;;
54452;SDS011;40363;52.270;10.546;2023-04-09T12:56:51;27.05;;;14.70;;
54452;SDS011;40363;52.270;10.546;2023-04-09T12:59:19;24.67;;;12.50;;
54452;SDS011;40363;52.270;10.546;2023-04-09T13:01:46;26.40;;;14.55;;
54452;SDS011;40363;52.270;10.546;2023-04-09T13:04:12;26.30;;;13.65;;
54452;SDS011;40363;52.270;10.546;2023-04-09T13:06:39;26.45;;;14.10;;
54452;SDS011;40363;52.270;10.546;2023-04-09T13:09:06;23.73;;;13.00;;
54452;SDS011;40363;52.270;10.546;2023-04-09T13:11:32;22.48;;;12.65;;
54452;SDS011;40363;52.270;10.546;2023-04-09T13:13:59;24.17;;;12.70;;
54452;SDS011;40363;52.270;10.546;2023-04-09T13:16:27;25.13;;;12.82;;
54452;SDS011;40363;52.270;10.546;2023-04-09T13:18:54;25.05;;;13.07;;
54452;SDS011;40363;52.270;10.546;2023-04-09T13:21:20;22.30;;;11.88;;
54452;SDS011;40363;52.270;10.546;2023-04-09T13:23:47;21.15;;;12.70;;
54452;SDS011;40363;52.270;10.546;2023-04-09T13:26:13;26.35;;;14.13;;
54452;SDS011;40363;52.270;10.546;2023-04-09T13:28:40;25.83;;;13.18;;
54452;SDS011;40363;52.270;10.546;2023-04-09T13:31:07;25.52;;;13.35;;
54452;SDS011;40363;52.270;10.546;2023-04-09T13:33:35;21.08;;;11.93;;
54452;SDS011;40363;52.270;10.546;2023-04-09T13:36:01;22.92;;;12.60;;
54452;SDS011;40363;52.270;10.546;2023-04-09T13:38:28;23.48;;;12.43;;
54452;SDS011;40363;52.270;10.546;2023-04-09T13:40:55;21.50;;;12.27;;
54452;SDS011;40363;52.270;10.546;2023-04-09T13:43:22;23.25;;;12.18;;
54452;SDS011;40363;52.270;10.546;2023-04-09T13:45:52;24.80;;;13.32;;
54452;SDS011;40363;52.270;10.546;2023-04-09T13:48:19;23.80;;;11.05;;
54452;SDS011;40363;52.270;10.546;2023-04-09T13:50:47;25.15;;;12.60;;
54452;SDS011;40363;52.270;10.546;2023-04-09T13:53:14;23.42;;;13.10;;
54452;SDS011;40363;52.270;10.546;2023-04-09T13:55:41;23.33;;;12.57;;
54452;SDS011;40363;52.270;10.546;2023-04-09T13:58:07;25.35;;;12.18;;
54452;SDS011;40363;52.270;10.546;2023-04-09T14:00:34;21.80;;;12.65;;
54452;SDS011;40363;52.270;10.546;2023-04-09T14:03:02;22.15;;;13.30;;
54452;SDS011;40363;52.270;10.546;2023-04-09T14:05:29;23.17;;;13.00;;
54452;SDS011;40363;52.270;10.546;2023-04-09T14:07:57;20.58;;;11.05;;
54452;SDS011;40363;52.270;10.546;2023-04-09T14:10:25;24.25;;;12.85;;
54452;SDS011;40363;52.270;10.546;2023-04-09T14:12:52;20.10;;;12.05;;
54452;SDS011;40363;52.270;10.546;2023-04-09T14:15:19;21.98;;;11.77;;
54452;SDS011;40363;52.270;10.546;2023-04-09T14:17:46;24.70;;;12.07;;